If you wish to contribute or participate in the discussions about articles you are invited to join SKYbrary as a registered user

GCGM

From SKYbrary Wiki
Revision as of 19:01, 28 November 2011 by Timo.Kouwenhoven (Talk | contribs)

(diff) ← Older revision | Latest revision (diff) | Newer revision → (diff)
Airport
ICAO: GCGM
Summary
Name La Gomera
Region Europe
Territory Canary Islands ES.gif
Location San Sebastián de la Gomera
Main city served
Coordinates 28° 1' 50.407", -17° 12' 45.0731"
More airports
in GC
GCLA, GCLP, GCRR, GCTS, GCXO
Runways
Designator Length Width Surface
9/27 1500 m4,921.26 ft 30 m98.425 ft ASP


METAR
Observation GCGM 231100Z VRB03KT 9999 FEW025 BKN049 20/11 Q1016 RMK CAB09 VRB01KT
Station La Gomera
Date/Time 23 November 2014 11:00:00
Wind direction °
Wind speed 03 kts
Lowest cloud amount few clouds
Temperature 20°C
Dew point 11°C
Humidity 56%
QNH 1016 hPa
Weather condition n/a


WX
Tag(s) Volcanic Ash

La Gomera Airport (IATA: GMZ) is an airport located near the village of Alajeró, Spain, 34 km18.359 nm
34,000 m
111,548.557 ft
southwest by road from the Gomera island's capital city, San Sebastián de la Gomera.